Nearby METAR Reports

 

EGFF - Cardiff-Wales Ar, United Kingdom
Distance from station: SSW 23km
Updated: 24/07/2021 10:50
Thunderstorm
Thunderstorm
 Wind from NE
Wind: NE 26 km/h
Temperature: 16°C
Dew Point: 14°C
Humidity: 88%
Barometer: 1008 hPa
Clouds: Thunderstorm
Visibility: 10 km
Cloud details: Overcast 488 m
2021/07/24 09:50 EGFF 240950Z AUTO 05014KT 9999 OVC016/// //////CB 16/14 Q1008
EGGD - Bristol/Lulsgate, United Kingdom
Distance from station: ESE 43km
Updated: 24/07/2021 10:50
Thunderstorm
Thunderstorm
 Wind from NE
Wind: NE 20 km/h
Temperature: 15°C
Dew Point: 14°C
Humidity: 94%
Barometer: 1008 hPa
Clouds: Thunderstorm
Visibility: 10 km
Cloud details: Overcast 183 m
2021/07/24 09:50 EGGD 240950Z AUTO 05011KT 9999 OVC006/// //////CB 15/14 Q1008
 
EGDY - Yeovilton (navy), United Kingdom
Distance from station: SE 77km
Updated: 24/07/2021 10:50
Mostly cloudy
Mostly cloudy
 Wind from NE
Wind: NE 20 km/h
Temperature: 17°C
Dew Point: 15°C
Humidity: 88%
Barometer: 1007 hPa
Clouds: Mostly cloudy
Visibility: 10 km
Cloud details: Mostly cloudy 274 m
Mostly cloudy 549 m
2021/07/24 09:50 EGDY 240950Z AUTO 04011KT 9999 BKN009/// BKN018/// 17/15 Q1007
EGTE - Exeter Airport, United Kingdom
Distance from station: S 96km
Updated: 24/07/2021 10:50
Mostly cloudy
Mostly cloudy
 Wind from NE
Wind: NE 19 km/h
Temperature: 17°C
Dew Point: 15°C
Humidity: 88%
Barometer: 1007 hPa
Clouds: Mostly cloudy
Visibility: 8 km
Cloud details: Mostly cloudy 244 m
2021/07/24 09:50 EGTE 240950Z 04010KT 360V060 8000 BKN008 17/15 Q1007